createdAt,value
2019-01-21T00:20:57.783Z,31.60
2019-01-21T00:23:26.096Z,31.73
2019-01-21T00:25:54.166Z,32.07
2019-01-21T00:31:16.756Z,34.73
2019-01-21T00:33:44.713Z,32.77
2019-01-21T00:39:07.269Z,32.57
2019-01-21T00:44:42.779Z,31.00
2019-01-21T00:47:10.759Z,30.70
2019-01-21T00:49:57.841Z,31.33
2019-01-21T00:52:25.811Z,33.33
2019-01-21T00:58:01.965Z,30.60
2019-01-21T01:03:13.118Z,30.30
2019-01-21T01:05:41.095Z,32.20
2019-01-21T01:08:09.109Z,30.67
2019-01-21T01:10:37.125Z,30.77
2019-01-21T01:13:05.062Z,31.70
2019-01-21T01:15:33.127Z,31.43
2019-01-21T01:18:01.146Z,30.10
2019-01-21T01:20:29.109Z,29.67
2019-01-21T01:22:57.091Z,31.00
2019-01-21T01:25:25.104Z,32.10
2019-01-21T01:27:53.108Z,31.67
2019-01-21T01:30:21.052Z,32.37
2019-01-21T01:32:49.030Z,29.50
2019-01-21T01:35:17.286Z,28.90
2019-01-21T01:37:45.420Z,29.40
2019-01-21T01:40:14.399Z,32.03
2019-01-21T01:42:42.435Z,31.37
2019-01-21T01:45:11.119Z,31.17
2019-01-21T01:47:44.647Z,32.23
2019-01-21T01:50:08.786Z,30.17
2019-01-21T01:52:36.777Z,29.83
2019-01-21T01:55:05.308Z,30.17
2019-01-21T01:57:33.291Z,30.83
2019-01-21T02:00:01.309Z,29.60
2019-01-21T02:05:22.822Z,30.53
2019-01-21T02:10:58.323Z,28.53
2019-01-21T02:16:14.891Z,28.93
2019-01-21T02:18:42.889Z,28.83
2019-01-21T02:21:10.897Z,29.80
2019-01-21T02:23:38.874Z,27.33
2019-01-21T02:26:25.970Z,27.10
2019-01-21T02:29:13.116Z,28.17
2019-01-21T02:32:00.205Z,27.73
2019-01-21T02:34:47.292Z,26.97
2019-01-21T02:37:34.368Z,27.00
2019-01-21T02:40:05.457Z,26.20
2019-01-21T02:42:52.570Z,26.90
2019-01-21T02:45:39.693Z,27.03
2019-01-21T02:48:26.888Z,26.03
2019-01-21T02:51:14.080Z,26.60
2019-01-21T02:53:54.573Z,28.13
2019-01-21T02:56:41.786Z,28.07
2019-01-21T02:59:18.105Z,27.93
2019-01-21T03:05:48.879Z,29.30
2019-01-21T03:08:37.494Z,28.50
2019-01-21T03:11:24.615Z,28.83
2019-01-21T03:14:13.402Z,29.63
2019-01-21T03:17:00.564Z,30.30
2019-01-21T03:19:47.645Z,28.13
2019-01-21T03:22:34.837Z,31.67
2019-01-21T03:25:21.915Z,26.83
2019-01-21T03:28:09.175Z,25.73
2019-01-21T03:34:02.603Z,25.43
2019-01-21T03:36:49.655Z,26.73
2019-01-21T03:39:36.766Z,25.47
2019-01-21T03:42:23.901Z,23.93
2019-01-21T03:45:11.029Z,26.60
2019-01-21T03:47:58.120Z,27.13
2019-01-21T03:50:45.405Z,26.97
2019-01-21T03:53:32.498Z,26.40
2019-01-21T03:59:29.622Z,26.70
2019-01-21T04:02:16.788Z,28.30
2019-01-21T04:08:04.791Z,29.23
2019-01-21T04:13:54.601Z,28.50
2019-01-21T04:16:41.725Z,29.07
2019-01-21T04:19:28.835Z,28.00
2019-01-21T04:22:05.574Z,29.23
2019-01-21T04:28:05.676Z,29.90
2019-01-21T04:30:52.837Z,28.13
2019-01-21T04:33:39.956Z,27.80
2019-01-21T04:39:15.566Z,30.80
2019-01-21T04:42:06.695Z,28.27
2019-01-21T04:44:54.162Z,30.73
2019-01-21T04:47:36.095Z,30.07
2019-01-21T04:50:23.308Z,29.03
2019-01-21T04:53:10.456Z,29.10
2019-01-21T04:55:57.640Z,31.83
2019-01-21T04:58:44.963Z,30.87
2019-01-21T05:01:32.032Z,32.80
2019-01-21T05:07:03.265Z,31.27
2019-01-21T05:09:50.805Z,32.80
2019-01-21T05:12:32.443Z,30.87
2019-01-21T05:15:08.150Z,29.50
2019-01-21T05:17:55.236Z,32.03
2019-01-21T05:20:42.326Z,29.47
2019-01-21T05:23:31.118Z,30.77
2019-01-21T05:26:21.732Z,29.50
2019-01-21T05:29:10.385Z,30.93
2019-01-21T05:31:57.474Z,31.70
2019-01-21T05:34:33.048Z,31.30
2019-01-21T05:37:04.909Z,29.90
2019-01-21T05:39:37.451Z,30.30
2019-01-21T05:42:24.550Z,31.07
2019-01-21T05:45:11.667Z,29.63
2019-01-21T05:47:58.721Z,29.37
2019-01-21T05:50:50.138Z,29.23
2019-01-21T05:53:38.834Z,32.43
2019-01-21T05:59:25.988Z,27.93
2019-01-21T06:02:13.114Z,27.97
2019-01-21T06:05:00.299Z,28.90
2019-01-21T06:07:36.210Z,30.07
2019-01-21T06:10:23.399Z,27.97
2019-01-21T06:13:10.535Z,28.07
2019-01-21T06:15:57.666Z,29.03
2019-01-21T06:18:32.546Z,31.13
2019-01-21T06:21:19.671Z,30.50
2019-01-21T06:23:54.409Z,30.77
2019-01-21T06:26:41.539Z,28.77
2019-01-21T06:29:28.629Z,34.83
2019-01-21T06:32:15.812Z,29.90
2019-01-21T06:34:48.092Z,28.40
2019-01-21T06:37:19.520Z,28.97
2019-01-21T06:40:06.643Z,30.13
2019-01-21T06:42:53.783Z,29.70
2019-01-21T06:45:30.679Z,28.87
2019-01-21T06:48:17.807Z,29.53
2019-01-21T06:51:05.350Z,29.40
2019-01-21T06:53:52.439Z,28.57
2019-01-21T06:56:39.581Z,30.83
2019-01-21T06:59:26.689Z,29.83
2019-01-21T07:02:13.823Z,30.83
2019-01-21T07:05:01.115Z,30.97
2019-01-21T07:07:48.259Z,30.70
2019-01-21T07:10:35.453Z,33.50
2019-01-21T07:13:22.586Z,33.13
2019-01-21T07:16:09.671Z,31.90
2019-01-21T07:18:46.572Z,30.47
2019-01-21T07:24:40.090Z,31.77
2019-01-21T07:27:27.285Z,31.23
2019-01-21T07:30:14.383Z,31.77
2019-01-21T07:33:01.535Z,34.37
2019-01-21T07:35:35.151Z,32.93
2019-01-21T07:38:22.355Z,31.40
2019-01-21T07:41:09.659Z,35.33
2019-01-21T07:43:56.824Z,34.20
2019-01-21T07:46:29.195Z,33.00
2019-01-21T07:49:17.710Z,32.17
2019-01-21T07:52:05.131Z,36.17
2019-01-21T07:54:52.316Z,34.40
2019-01-21T07:57:29.384Z,33.03
2019-01-21T08:00:01.751Z,35.63
2019-01-21T08:02:48.950Z,43.73
2019-01-21T08:08:07.534Z,33.03
2019-01-21T08:10:54.684Z,34.80
2019-01-21T08:13:41.848Z,35.13
2019-01-21T08:16:29.025Z,33.67
2019-01-21T08:19:01.555Z,35.37
2019-01-21T08:21:48.754Z,36.17
2019-01-21T08:24:35.862Z,35.20
2019-01-21T08:27:22.968Z,35.27
2019-01-21T08:30:11.127Z,31.40
2019-01-21T08:32:58.215Z,35.63
2019-01-21T08:35:45.364Z,32.47
2019-01-21T08:38:32.657Z,31.93
2019-01-21T08:41:19.807Z,32.07
2019-01-21T08:44:06.916Z,33.27
2019-01-21T08:46:54.045Z,30.40
2019-01-21T08:49:35.834Z,34.30
2019-01-21T08:52:22.949Z,32.93
2019-01-21T08:54:57.904Z,32.87
2019-01-21T08:57:45.033Z,30.70
2019-01-21T09:00:32.105Z,34.17
2019-01-21T09:03:19.316Z,34.40
2019-01-21T09:06:06.479Z,34.80
2019-01-21T09:08:53.639Z,33.63
2019-01-21T09:11:40.701Z,34.53
2019-01-21T09:14:27.858Z,32.10
2019-01-21T09:17:15.078Z,36.03
2019-01-21T09:20:02.159Z,31.90
2019-01-21T09:22:49.232Z,33.17
2019-01-21T09:25:36.377Z,33.93
2019-01-21T09:28:23.557Z,34.00
2019-01-21T09:31:10.626Z,32.53
2019-01-21T09:33:57.710Z,34.10
2019-01-21T09:36:44.983Z,32.30
2019-01-21T09:39:32.064Z,32.60
2019-01-21T09:42:19.263Z,32.60
2019-01-21T09:45:06.373Z,30.07
2019-01-21T09:47:33.633Z,30.87
2019-01-21T09:50:01.680Z,29.73
2019-01-21T09:52:29.736Z,28.07
2019-01-21T09:54:57.754Z,31.47
2019-01-21T09:57:26.096Z,29.80
2019-01-21T10:00:13.149Z,30.50
2019-01-21T10:02:42.330Z,32.50
2019-01-21T10:05:29.384Z,30.90
2019-01-21T10:08:16.611Z,31.77
2019-01-21T10:10:49.325Z,29.80
2019-01-21T10:13:36.552Z,30.20
2019-01-21T10:16:23.634Z,30.90
2019-01-21T10:19:10.839Z,29.93
2019-01-21T10:21:57.919Z,31.27
2019-01-21T10:24:33.204Z,29.93
2019-01-21T10:27:15.491Z,30.27
2019-01-21T10:30:02.588Z,33.00
2019-01-21T10:32:49.738Z,30.83
2019-01-21T10:35:36.867Z,32.10
2019-01-21T10:38:24.035Z,32.10
2019-01-21T10:41:11.145Z,30.47
2019-01-21T10:43:58.271Z,33.20
2019-01-21T10:46:45.377Z,32.93
2019-01-21T10:49:32.523Z,31.93
2019-01-21T10:52:19.653Z,33.00
2019-01-21T10:54:51.843Z,33.87
2019-01-21T10:57:38.931Z,34.43
2019-01-21T11:00:26.070Z,31.97
2019-01-21T11:03:13.171Z,33.20
2019-01-21T11:06:00.394Z,34.10
2019-01-21T11:08:47.527Z,34.47
2019-01-21T11:11:34.693Z,35.83
2019-01-21T11:14:21.913Z,35.40
2019-01-21T11:17:09.003Z,35.10
2019-01-21T11:19:56.195Z,35.77
2019-01-21T11:22:43.297Z,34.50
2019-01-21T11:25:30.450Z,34.10
2019-01-21T11:28:03.175Z,33.17
2019-01-21T11:30:50.385Z,33.03
2019-01-21T11:33:37.562Z,33.20
2019-01-21T11:36:24.653Z,32.90
2019-01-21T11:39:11.921Z,33.70
2019-01-21T11:41:59.073Z,33.67
2019-01-21T11:44:46.168Z,32.57
2019-01-21T11:47:33.293Z,32.77
2019-01-21T11:50:20.388Z,31.83
2019-01-21T11:53:07.569Z,32.17
2019-01-21T11:55:54.643Z,32.73
2019-01-21T11:58:41.726Z,33.03
2019-01-21T12:01:13.700Z,32.07
2019-01-21T12:04:00.950Z,33.30
2019-01-21T12:06:33.908Z,34.93
2019-01-21T12:09:07.524Z,33.80
2019-01-21T12:12:02.076Z,34.27
2019-01-21T12:14:49.131Z,35.13
2019-01-21T12:17:36.280Z,36.03
2019-01-21T12:20:23.409Z,33.27
2019-01-21T12:23:10.619Z,32.83
2019-01-21T12:25:57.705Z,36.97
2019-01-21T12:28:44.862Z,34.30
2019-01-21T12:31:31.970Z,35.47
2019-01-21T12:34:19.125Z,33.73
2019-01-21T12:37:06.404Z,36.33
2019-01-21T12:39:55.718Z,34.10
2019-01-21T12:42:42.827Z,35.03
2019-01-21T12:45:30.048Z,34.83
2019-01-21T12:48:17.106Z,36.77
2019-01-21T12:50:51.314Z,34.93
2019-01-21T12:53:39.789Z,35.67
2019-01-21T12:56:27.023Z,35.53
2019-01-21T12:59:16.114Z,35.87
2019-01-21T13:01:49.656Z,35.27
2019-01-21T13:04:24.218Z,34.43
2019-01-21T13:07:11.323Z,36.33
2019-01-21T13:09:58.532Z,37.47
2019-01-21T13:15:34.640Z,36.20
2019-01-21T13:18:10.663Z,36.13
2019-01-21T13:20:57.772Z,32.27
2019-01-21T13:23:31.534Z,34.07
2019-01-21T13:26:18.749Z,35.93
2019-01-21T13:28:49.609Z,33.57
2019-01-21T13:31:36.711Z,35.67
2019-01-21T13:34:23.846Z,37.63
2019-01-21T13:37:06.886Z,34.23
2019-01-21T13:39:54.067Z,34.13
2019-01-21T13:42:41.185Z,33.67
2019-01-21T13:45:28.302Z,34.87
2019-01-21T13:48:15.410Z,35.60
2019-01-21T13:51:02.525Z,37.33
2019-01-21T13:53:49.846Z,36.33
2019-01-21T13:56:36.935Z,35.07
2019-01-21T13:59:25.509Z,33.63
2019-01-21T14:02:12.650Z,34.73
2019-01-21T14:04:59.764Z,34.27
2019-01-21T14:07:46.921Z,33.30
2019-01-21T14:10:34.404Z,34.10
2019-01-21T14:13:26.430Z,34.07
2019-01-21T14:15:57.211Z,34.60
2019-01-21T14:18:44.397Z,34.40
2019-01-21T14:21:18.291Z,33.67
2019-01-21T14:24:05.406Z,35.60
2019-01-21T14:26:52.534Z,35.27
2019-01-21T14:29:39.655Z,34.27
2019-01-21T14:32:26.857Z,34.07
2019-01-21T14:35:13.937Z,41.58
2019-01-21T14:38:01.073Z,40.03
2019-01-21T14:43:59.753Z,34.70
2019-01-21T14:46:46.888Z,34.10
2019-01-21T14:49:34.040Z,35.30
2019-01-21T14:52:21.164Z,36.37
2019-01-21T14:55:02.952Z,34.50
2019-01-21T14:57:50.137Z,37.70
2019-01-21T15:00:37.375Z,36.60
2019-01-21T15:03:24.523Z,38.33
2019-01-21T15:06:06.772Z,39.07
2019-01-21T15:08:53.846Z,38.43
2019-01-21T15:11:41.004Z,37.47
2019-01-21T15:14:28.053Z,40.03
2019-01-21T15:17:15.225Z,39.70
2019-01-21T15:20:02.356Z,40.20
2019-01-21T15:22:49.555Z,40.63
2019-01-21T15:25:36.670Z,41.40
2019-01-21T15:28:24.058Z,43.67
2019-01-21T15:31:11.146Z,41.53
2019-01-21T15:33:58.484Z,40.43
2019-01-21T15:36:47.275Z,42.17
2019-01-21T15:39:34.672Z,42.47
2019-01-21T15:42:22.111Z,44.50
2019-01-21T15:45:09.911Z,43.60
2019-01-21T15:47:57.112Z,44.33
2019-01-21T15:50:32.810Z,42.73
2019-01-21T15:53:06.364Z,41.53
2019-01-21T15:55:38.116Z,41.60
2019-01-21T15:58:25.275Z,42.50
2019-01-21T16:00:57.287Z,44.37
2019-01-21T16:03:33.772Z,44.03
2019-01-21T16:06:20.838Z,45.33
2019-01-21T16:09:08.009Z,44.97
2019-01-21T16:11:55.113Z,44.00
2019-01-21T16:14:35.477Z,43.37
2019-01-21T16:17:22.566Z,46.63
2019-01-21T16:20:09.666Z,44.27
2019-01-21T16:22:56.739Z,45.73
2019-01-21T16:25:43.851Z,42.30
2019-01-21T16:28:17.034Z,43.03
2019-01-21T16:31:04.106Z,43.93
2019-01-21T16:33:51.180Z,45.47
2019-01-21T16:36:38.293Z,51.98
2019-01-21T16:39:09.843Z,45.27
2019-01-21T16:41:56.942Z,47.83
2019-01-21T16:44:25.264Z,47.73
2019-01-21T16:46:53.247Z,43.83
2019-01-21T16:49:21.434Z,46.00
2019-01-21T16:52:08.556Z,45.50
2019-01-21T16:54:36.724Z,45.60
2019-01-21T16:57:04.712Z,44.47
2019-01-21T16:59:32.749Z,47.93
2019-01-21T17:02:00.821Z,43.37
2019-01-21T17:04:28.833Z,44.37
2019-01-21T17:06:57.060Z,46.33
2019-01-21T17:09:25.108Z,44.73
2019-01-21T17:11:53.058Z,44.50
2019-01-21T17:14:21.104Z,42.73
2019-01-21T17:16:49.091Z,44.67
2019-01-21T17:19:17.294Z,47.20
2019-01-21T17:21:45.302Z,44.67
2019-01-21T17:24:13.311Z,45.47
2019-01-21T17:26:41.338Z,45.60
2019-01-21T17:29:09.303Z,53.35
2019-01-21T17:31:37.334Z,45.93
2019-01-21T17:34:05.597Z,48.53
2019-01-21T17:36:33.646Z,47.40
2019-01-21T17:39:01.618Z,48.13
2019-01-21T17:41:29.786Z,48.10
2019-01-21T17:43:57.743Z,48.43
2019-01-21T17:46:26.077Z,49.67
2019-01-21T17:48:54.101Z,50.50
2019-01-21T17:51:22.131Z,50.53
2019-01-21T17:53:51.438Z,51.10
2019-01-21T17:56:19.784Z,52.10
2019-01-21T17:58:47.845Z,51.77
2019-01-21T18:01:18.202Z,52.90
2019-01-21T18:03:46.320Z,52.23
2019-01-21T18:06:14.423Z,57.90
2019-01-21T18:08:42.478Z,52.47
2019-01-21T18:11:10.491Z,51.83
2019-01-21T18:13:38.524Z,53.10
2019-01-21T18:16:06.803Z,55.20
2019-01-21T18:18:34.822Z,55.23
2019-01-21T18:21:02.756Z,55.00
2019-01-21T18:23:30.754Z,52.70
2019-01-21T18:25:58.968Z,54.07
2019-01-21T18:28:27.227Z,53.77
2019-01-21T18:30:55.190Z,55.90
2019-01-21T18:33:23.206Z,54.03
2019-01-21T18:35:51.335Z,62.48
2019-01-21T18:38:19.491Z,57.23
2019-01-21T18:40:47.524Z,55.47
2019-01-21T18:46:10.350Z,54.20
2019-01-21T18:48:38.477Z,53.03
2019-01-21T18:51:06.546Z,53.10
2019-01-21T18:53:34.927Z,51.80
2019-01-21T18:56:03.115Z,52.07
2019-01-21T18:58:31.267Z,56.90
2019-01-21T19:00:59.409Z,53.03
2019-01-21T19:03:27.382Z,52.50
2019-01-21T19:05:55.680Z,51.93
2019-01-21T19:08:23.857Z,54.47
2019-01-21T19:10:52.027Z,52.97
2019-01-21T19:13:20.631Z,52.17
2019-01-21T19:15:50.246Z,57.58
2019-01-21T19:18:19.129Z,50.73
2019-01-21T19:20:47.247Z,50.10
2019-01-21T19:23:15.245Z,50.70
2019-01-21T19:25:43.245Z,52.40
2019-01-21T19:28:11.608Z,54.57
2019-01-21T19:30:39.676Z,52.20
2019-01-21T19:33:07.830Z,54.83
2019-01-21T19:35:36.822Z,55.00
2019-01-21T19:38:04.789Z,51.73
2019-01-21T19:40:32.820Z,51.73
2019-01-21T19:43:00.935Z,56.10
2019-01-21T19:45:28.922Z,53.63
2019-01-21T19:47:56.978Z,65.90
2019-01-21T19:50:24.982Z,56.33
2019-01-21T19:52:52.999Z,53.80
2019-01-21T19:55:22.390Z,53.40
2019-01-21T19:57:50.364Z,55.57
2019-01-21T20:00:18.854Z,49.90
2019-01-21T20:02:46.930Z,50.63
2019-01-21T20:05:14.918Z,50.40
2019-01-21T20:07:42.909Z,50.63
2019-01-21T20:10:12.059Z,49.77
2019-01-21T20:12:40.029Z,49.60
2019-01-21T20:15:08.603Z,48.90
2019-01-21T20:17:36.579Z,49.03
2019-01-21T20:20:05.619Z,52.17
2019-01-21T20:22:33.547Z,49.13
2019-01-21T20:25:01.558Z,52.07
2019-01-21T20:27:29.516Z,49.87
2019-01-21T20:29:57.522Z,52.13
2019-01-21T20:32:26.337Z,49.30
2019-01-21T20:34:54.820Z,50.77
2019-01-21T20:37:22.844Z,53.93
2019-01-21T20:39:51.706Z,50.03
2019-01-21T20:42:21.280Z,50.20
2019-01-21T20:44:49.282Z,47.20
2019-01-21T20:47:17.269Z,49.10
2019-01-21T20:50:04.227Z,48.57
2019-01-21T20:52:32.948Z,47.17
2019-01-21T20:55:02.369Z,50.40
2019-01-21T21:00:12.409Z,50.60
2019-01-21T21:02:40.437Z,49.23
2019-01-21T21:05:08.397Z,51.77
2019-01-21T21:07:37.380Z,47.17
2019-01-21T21:10:09.387Z,52.00
2019-01-21T21:12:38.456Z,47.97
2019-01-21T21:15:07.790Z,49.77
2019-01-21T21:17:36.779Z,49.70
2019-01-21T21:20:06.393Z,49.53
2019-01-21T21:22:34.775Z,49.57
2019-01-21T21:25:06.404Z,47.10
2019-01-21T21:27:53.629Z,48.73
2019-01-21T21:33:17.726Z,48.27
2019-01-21T21:38:55.222Z,62.58
2019-01-21T21:41:10.917Z,50.37
2019-01-21T21:46:48.585Z,49.97
2019-01-21T21:52:27.624Z,51.60
2019-01-21T21:54:41.714Z,48.63
2019-01-21T21:57:09.698Z,49.00
2019-01-21T21:59:56.801Z,48.77
2019-01-21T22:02:24.805Z,69.87
2019-01-21T22:04:54.631Z,55.40
2019-01-21T22:07:23.354Z,56.57
2019-01-21T22:09:51.363Z,51.07
2019-01-21T22:12:19.824Z,54.20
2019-01-21T22:14:48.276Z,50.93
2019-01-21T22:17:16.747Z,62.20
2019-01-21T22:19:44.740Z,49.70
2019-01-21T22:22:12.742Z,53.17
2019-01-21T22:24:40.834Z,51.67
2019-01-21T22:27:08.849Z,48.33
2019-01-21T22:29:36.838Z,51.80
2019-01-21T22:32:06.438Z,49.80
2019-01-21T22:34:34.488Z,51.23
2019-01-21T22:37:02.484Z,51.63
2019-01-21T22:39:30.481Z,49.57
2019-01-21T22:41:58.423Z,50.83
2019-01-21T22:44:26.425Z,56.60
2019-01-21T22:46:54.380Z,49.63
2019-01-21T22:49:22.378Z,51.17
2019-01-21T22:51:50.382Z,51.83
2019-01-21T22:54:18.384Z,50.20
2019-01-21T22:56:46.562Z,49.87
2019-01-21T22:59:14.759Z,52.33
2019-01-21T23:01:42.695Z,50.90
2019-01-21T23:04:10.709Z,53.60
2019-01-21T23:06:38.730Z,51.63
2019-01-21T23:09:08.368Z,50.53
2019-01-21T23:11:36.445Z,51.37
2019-01-21T23:14:04.441Z,52.47
2019-01-21T23:16:32.433Z,53.07
2019-01-21T23:19:00.391Z,51.50
2019-01-21T23:21:28.365Z,51.50
2019-01-21T23:23:56.356Z,51.93
2019-01-21T23:26:24.293Z,51.47
2019-01-21T23:28:52.331Z,50.43
2019-01-21T23:31:20.298Z,53.10
2019-01-21T23:33:48.933Z,50.20
2019-01-21T23:36:17.564Z,50.07
2019-01-21T23:38:45.632Z,51.87
2019-01-21T23:41:13.671Z,51.10
2019-01-21T23:43:41.585Z,48.57
2019-01-21T23:46:09.579Z,51.33
2019-01-21T23:51:45.054Z,51.73
2019-01-21T23:54:13.021Z,50.20
2019-01-21T23:59:35.310Z,54.30
